createdAt,value
2022-07-25T00:01:36.006Z,16.51
2022-07-25T00:04:18.818Z,15.97
2022-07-25T00:06:50.395Z,15.76
2022-07-25T00:09:24.268Z,16.37
2022-07-25T00:11:55.867Z,16.95
2022-07-25T00:14:29.864Z,17.33
2022-07-25T00:17:01.385Z,17.60
2022-07-25T00:19:50.571Z,17.78
2022-07-25T00:22:24.662Z,17.61
2022-07-25T00:24:55.703Z,16.83
2022-07-25T00:27:32.381Z,16.11
2022-07-25T00:30:33.241Z,15.55
2022-07-25T00:33:01.941Z,15.38
2022-07-25T00:35:55.820Z,15.99
2022-07-25T00:38:52.909Z,16.67
2022-07-25T00:41:23.758Z,17.06
2022-07-25T00:43:57.485Z,17.29
2022-07-25T00:46:54.295Z,17.49
2022-07-25T00:49:28.521Z,17.37
2022-07-25T00:51:59.971Z,16.63
2022-07-25T00:54:30.706Z,15.99
2022-07-25T00:56:59.492Z,15.47
2022-07-25T00:59:48.075Z,15.20
2022-07-25T01:03:50.061Z,15.91
2022-07-25T01:07:50.452Z,16.68
2022-07-25T01:11:22.526Z,17.08
2022-07-25T01:14:02.316Z,17.25
2022-07-25T01:16:41.221Z,17.13
2022-07-25T01:19:40.263Z,16.29
2022-07-25T01:22:20.850Z,15.46
2022-07-25T01:24:49.533Z,14.92
2022-07-25T01:27:27.646Z,14.70
2022-07-25T01:30:41.019Z,15.44
2022-07-25T01:33:39.901Z,16.09
2022-07-25T01:37:31.902Z,16.57
2022-07-25T01:40:44.912Z,16.90
2022-07-25T01:43:51.706Z,17.12
2022-07-25T01:47:22.547Z,16.85
2022-07-25T01:51:02.240Z,15.85
2022-07-25T01:54:40.085Z,14.93
2022-07-25T01:58:21.222Z,14.24
2022-07-25T02:01:13.793Z,14.40
2022-07-25T02:03:50.352Z,15.17
2022-07-25T02:07:20.054Z,15.70
2022-07-25T02:10:17.408Z,16.16
2022-07-25T02:13:54.460Z,16.43
2022-07-25T02:16:45.450Z,16.63
2022-07-25T02:19:52.556Z,16.76
2022-07-25T02:22:37.961Z,16.57
2022-07-25T02:25:32.329Z,15.61
2022-07-25T02:28:11.415Z,14.91
2022-07-25T02:31:05.958Z,14.40
2022-07-25T02:34:04.958Z,14.28
2022-07-25T02:36:35.873Z,15.00
2022-07-25T02:39:10.193Z,15.52
2022-07-25T02:41:43.377Z,15.89
2022-07-25T02:44:14.279Z,16.16
2022-07-25T02:46:50.987Z,16.35
2022-07-25T02:49:21.907Z,16.52
2022-07-25T02:51:57.984Z,16.44
2022-07-25T02:54:29.052Z,15.67
2022-07-25T02:57:03.034Z,14.89
2022-07-25T02:59:36.411Z,14.49
2022-07-25T03:02:08.048Z,15.05
2022-07-25T03:04:42.034Z,15.64
2022-07-25T03:07:13.337Z,16.01
2022-07-25T03:09:47.693Z,16.27
2022-07-25T03:12:19.209Z,16.50
2022-07-25T03:14:47.689Z,16.51
2022-07-25T03:17:18.280Z,15.91
2022-07-25T03:19:46.800Z,15.24
2022-07-25T03:22:18.249Z,14.73
2022-07-25T03:24:52.148Z,14.51
2022-07-25T03:27:20.643Z,15.17
2022-07-25T03:29:54.544Z,15.94
2022-07-25T03:32:28.699Z,16.51
2022-07-25T03:34:59.904Z,16.81
2022-07-25T03:37:45.892Z,16.47
2022-07-25T03:40:40.108Z,16.13
2022-07-25T03:44:49.469Z,16.06
2022-07-25T03:47:27.931Z,16.12
2022-07-25T03:50:01.888Z,16.23
2022-07-25T03:52:49.880Z,16.37
2022-07-25T03:56:04.231Z,16.49
2022-07-25T03:59:00.046Z,16.61
2022-07-25T04:01:34.022Z,16.77
2022-07-25T04:04:32.752Z,16.96
2022-07-25T04:08:07.509Z,17.16
2022-07-25T04:11:41.503Z,17.47
2022-07-25T04:15:39.562Z,17.88
2022-07-25T04:19:21.503Z,18.33
2022-07-25T04:23:31.786Z,18.88
2022-07-25T04:27:31.455Z,19.46
2022-07-25T04:31:33.738Z,19.97
2022-07-25T04:35:16.499Z,20.72
2022-07-25T04:39:15.762Z,21.53
2022-07-25T04:43:25.325Z,22.50
2022-07-25T04:47:34.670Z,23.62
2022-07-25T04:51:37.359Z,24.73
2022-07-25T04:55:47.009Z,25.86
2022-07-25T04:59:55.124Z,27.21
2022-07-25T05:03:49.759Z,28.71
2022-07-25T05:07:59.993Z,30.31
2022-07-25T05:12:09.201Z,31.79
2022-07-25T05:16:18.974Z,33.11
2022-07-25T05:20:14.031Z,34.31
2022-07-25T05:24:23.443Z,34.81
2022-07-25T05:28:32.683Z,35.07
2022-07-25T05:32:42.060Z,35.80
2022-07-25T05:36:51.377Z,36.75
2022-07-25T05:41:00.858Z,37.51
2022-07-25T05:45:10.468Z,37.98
2022-07-25T05:49:19.796Z,38.40
2022-07-25T05:53:29.669Z,38.64
2022-07-25T05:57:39.115Z,39.01
2022-07-25T06:01:48.559Z,39.54
2022-07-25T06:05:57.985Z,39.89
2022-07-25T06:10:07.355Z,40.38
2022-07-25T06:14:10.349Z,40.45
2022-07-25T06:18:19.757Z,39.91
2022-07-25T06:22:29.141Z,40.39
2022-07-25T06:26:38.382Z,40.95
2022-07-25T06:30:47.973Z,41.31
2022-07-25T06:34:57.570Z,41.58
2022-07-25T06:39:06.546Z,41.84
2022-07-25T06:43:18.323Z,40.93
2022-07-25T06:47:27.673Z,39.59
2022-07-25T06:51:37.011Z,38.70
2022-07-25T06:55:46.662Z,37.98
2022-07-25T06:59:55.986Z,37.25
2022-07-25T07:04:14.329Z,37.45
2022-07-25T07:08:23.664Z,37.73
2022-07-25T07:12:25.221Z,38.51
2022-07-25T07:16:34.691Z,38.88
2022-07-25T07:20:44.468Z,39.10
2022-07-25T07:24:48.063Z,38.35
2022-07-25T07:28:57.012Z,36.94
2022-07-25T07:33:06.293Z,37.21
2022-07-25T07:37:15.807Z,36.63
2022-07-25T07:41:26.141Z,36.71
2022-07-25T07:45:36.617Z,36.55
2022-07-25T07:49:50.037Z,35.90
2022-07-25T07:53:57.320Z,35.95
2022-07-25T07:58:06.191Z,36.44
2022-07-25T08:02:15.595Z,37.15
2022-07-25T08:06:25.105Z,38.29
2022-07-25T08:10:28.610Z,38.62
2022-07-25T08:14:18.360Z,38.57
2022-07-25T08:18:27.520Z,37.85
2022-07-25T08:22:37.088Z,36.82
2022-07-25T08:26:46.480Z,36.81
2022-07-25T08:30:56.280Z,36.98
2022-07-25T08:35:09.520Z,36.50
2022-07-25T08:39:20.719Z,35.71
2022-07-25T08:43:30.072Z,34.70
2022-07-25T08:47:40.665Z,33.42
2022-07-25T08:51:42.359Z,31.73
2022-07-25T08:55:51.779Z,30.79
2022-07-25T09:00:01.701Z,30.23
2022-07-25T09:04:14.021Z,29.82
2022-07-25T09:08:32.165Z,29.20
2022-07-25T09:12:52.202Z,29.52
2022-07-25T09:17:04.999Z,29.76
2022-07-25T09:21:16.907Z,29.50
2022-07-25T09:25:29.202Z,28.66
2022-07-25T09:29:47.494Z,28.39
2022-07-25T09:34:02.328Z,28.40
2022-07-25T09:38:14.294Z,28.29
2022-07-25T09:42:23.765Z,28.33
2022-07-25T09:46:33.156Z,28.45
2022-07-25T09:50:42.562Z,28.68
2022-07-25T09:54:52.889Z,28.66
2022-07-25T09:59:02.218Z,28.01
2022-07-25T10:03:17.409Z,27.86
2022-07-25T10:07:35.412Z,28.01
2022-07-25T10:11:47.577Z,27.98
2022-07-25T10:15:47.838Z,28.01
2022-07-25T10:19:58.979Z,27.81
2022-07-25T10:24:17.295Z,27.91
2022-07-25T10:28:09.734Z,27.70
2022-07-25T10:32:10.179Z,27.76
2022-07-25T10:36:19.730Z,27.61
2022-07-25T10:40:22.447Z,27.78
2022-07-25T10:44:34.638Z,28.06
2022-07-25T10:48:43.984Z,28.17
2022-07-25T10:52:56.020Z,28.18
2022-07-25T10:57:14.027Z,28.02
2022-07-25T11:01:15.081Z,27.92
2022-07-25T11:05:23.038Z,28.26
2022-07-25T11:09:32.407Z,28.65
2022-07-25T11:13:41.795Z,28.80
2022-07-25T11:17:53.404Z,28.74
2022-07-25T11:22:02.767Z,28.57
2022-07-25T11:26:05.882Z,28.63
2022-07-25T11:30:24.175Z,28.86
2022-07-25T11:34:23.733Z,28.95
2022-07-25T11:38:33.134Z,29.04
2022-07-25T11:43:06.851Z,29.17
2022-07-25T11:47:24.961Z,29.28
2022-07-25T11:51:34.345Z,29.67
2022-07-25T11:55:42.395Z,30.02
2022-07-25T11:59:57.560Z,30.21
2022-07-25T12:04:12.674Z,30.10
2022-07-25T12:08:21.041Z,30.05
2022-07-25T12:12:46.320Z,30.14
2022-07-25T12:16:54.619Z,29.84
2022-07-25T12:21:06.686Z,30.04
2022-07-25T12:25:16.132Z,30.20
2022-07-25T12:29:25.567Z,30.63
2022-07-25T12:33:35.105Z,30.88
2022-07-25T12:37:37.083Z,30.59
2022-07-25T12:41:26.640Z,30.29
2022-07-25T12:45:35.984Z,30.77
2022-07-25T12:49:37.686Z,30.70
2022-07-25T12:53:42.412Z,30.58
2022-07-25T12:57:52.185Z,30.78
2022-07-25T13:02:01.690Z,31.12
2022-07-25T13:06:11.626Z,31.19
2022-07-25T13:10:21.072Z,30.97
2022-07-25T13:14:30.570Z,30.54
2022-07-25T13:18:39.912Z,30.42
2022-07-25T13:22:49.242Z,30.37
2022-07-25T13:26:58.219Z,30.34
2022-07-25T13:31:07.930Z,30.51
2022-07-25T13:35:20.421Z,30.29
2022-07-25T13:39:28.945Z,30.55
2022-07-25T13:43:38.168Z,30.42
2022-07-25T13:48:06.043Z,30.50
2022-07-25T13:52:17.987Z,30.70
2022-07-25T13:56:29.905Z,30.64
2022-07-25T14:00:39.219Z,30.53
2022-07-25T14:04:48.606Z,30.62
2022-07-25T14:08:58.166Z,30.78
2022-07-25T14:13:07.485Z,30.71
2022-07-25T14:17:16.854Z,30.54
2022-07-25T14:21:26.333Z,30.68
2022-07-25T14:25:35.761Z,31.06
2022-07-25T14:29:45.138Z,31.21
2022-07-25T14:33:36.379Z,30.93
2022-07-25T14:37:45.739Z,30.84
2022-07-25T14:41:55.456Z,30.71
2022-07-25T14:45:44.757Z,30.50
2022-07-25T14:49:54.127Z,30.28
2022-07-25T14:54:03.308Z,29.97
2022-07-25T14:58:07.154Z,29.70
2022-07-25T15:02:15.273Z,29.83
2022-07-25T15:06:14.337Z,29.95
2022-07-25T15:10:03.665Z,29.71
2022-07-25T15:14:11.142Z,29.39
2022-07-25T15:18:15.124Z,29.01
2022-07-25T15:22:24.522Z,28.57
2022-07-25T15:26:34.917Z,28.19
2022-07-25T15:30:42.845Z,27.80
2022-07-25T15:34:44.627Z,27.38
2022-07-25T15:38:45.995Z,27.05
2022-07-25T15:42:55.337Z,26.89
2022-07-25T15:47:04.877Z,26.74
2022-07-25T15:51:12.825Z,26.63
2022-07-25T15:55:22.235Z,26.55
2022-07-25T15:59:22.738Z,26.87
2022-07-25T16:03:25.059Z,27.20
2022-07-25T16:06:59.722Z,27.50
2022-07-25T16:10:53.564Z,27.74
2022-07-25T16:14:48.545Z,28.01
2022-07-25T16:18:58.072Z,28.28
2022-07-25T16:23:01.478Z,28.47
2022-07-25T16:27:10.904Z,28.58
2022-07-25T16:31:20.005Z,28.61
2022-07-25T16:35:22.549Z,28.66
2022-07-25T16:39:30.483Z,28.65
2022-07-25T16:43:31.274Z,28.57
2022-07-25T16:47:40.624Z,28.49
2022-07-25T16:51:15.689Z,28.38
2022-07-25T16:55:04.576Z,28.26
2022-07-25T16:59:13.854Z,28.11
2022-07-25T17:03:23.109Z,27.98
2022-07-25T17:07:12.387Z,27.81
2022-07-25T17:11:21.650Z,27.64
2022-07-25T17:15:30.988Z,27.40
2022-07-25T17:19:40.264Z,27.23
2022-07-25T17:23:41.013Z,27.06
2022-07-25T17:27:50.130Z,26.89
2022-07-25T17:31:52.805Z,26.63
2022-07-25T17:35:54.897Z,26.43
2022-07-25T17:40:02.535Z,26.18
2022-07-25T17:44:12.389Z,25.91
2022-07-25T17:48:21.885Z,25.71
2022-07-25T17:52:31.133Z,25.50
2022-07-25T17:56:43.731Z,25.30
2022-07-25T18:00:46.402Z,25.07
2022-07-25T18:04:55.741Z,24.77
2022-07-25T18:09:05.138Z,24.45
2022-07-25T18:13:14.359Z,24.10
2022-07-25T18:17:12.357Z,23.76
2022-07-25T18:21:21.100Z,23.44
2022-07-25T18:25:30.404Z,23.15
2022-07-25T18:29:38.196Z,22.91
2022-07-25T18:33:40.116Z,22.70
2022-07-25T18:37:30.179Z,22.50
2022-07-25T18:41:30.292Z,22.27
2022-07-25T18:44:58.928Z,22.06
2022-07-25T18:49:08.630Z,21.85
2022-07-25T18:53:06.645Z,21.66
2022-07-25T18:56:51.641Z,21.45
2022-07-25T19:00:36.872Z,21.27
2022-07-25T19:03:58.645Z,21.13
2022-07-25T19:07:29.915Z,21.01
2022-07-25T19:10:38.102Z,20.89
2022-07-25T19:13:50.303Z,21.16
2022-07-25T19:16:57.672Z,22.11
2022-07-25T19:20:10.937Z,22.80
2022-07-25T19:23:05.373Z,23.23
2022-07-25T19:26:39.773Z,23.06
2022-07-25T19:30:30.803Z,22.12
2022-07-25T19:33:43.806Z,21.46
2022-07-25T19:36:52.260Z,21.10
2022-07-25T19:40:22.625Z,20.83
2022-07-25T19:44:31.913Z,20.57
2022-07-25T19:48:03.820Z,20.96
2022-07-25T19:51:46.428Z,21.97
2022-07-25T19:54:51.358Z,22.51
2022-07-25T19:58:38.879Z,22.56
2022-07-25T20:02:07.516Z,21.62
2022-07-25T20:05:36.066Z,20.99
2022-07-25T20:09:17.778Z,20.55
2022-07-25T20:13:01.740Z,20.17
2022-07-25T20:16:51.942Z,19.83
2022-07-25T20:20:39.280Z,20.21
2022-07-25T20:24:08.772Z,21.19
2022-07-25T20:27:22.622Z,21.69
2022-07-25T20:31:28.762Z,22.01
2022-07-25T20:35:20.863Z,21.71
2022-07-25T20:39:03.975Z,20.77
2022-07-25T20:42:15.712Z,20.14
2022-07-25T20:46:18.984Z,19.75
2022-07-25T20:50:22.040Z,19.37
2022-07-25T20:53:53.154Z,19.76
2022-07-25T20:58:03.022Z,20.67
2022-07-25T21:01:38.137Z,21.23
2022-07-25T21:05:47.662Z,21.53
2022-07-25T21:09:33.205Z,21.16
2022-07-25T21:13:12.830Z,20.26
2022-07-25T21:16:48.061Z,19.52
2022-07-25T21:20:15.312Z,19.03
2022-07-25T21:23:22.459Z,19.13
2022-07-25T21:27:01.610Z,20.06
2022-07-25T21:30:46.286Z,20.72
2022-07-25T21:34:17.186Z,21.08
2022-07-25T21:38:10.890Z,21.31
2022-07-25T21:41:55.409Z,20.85
2022-07-25T21:45:39.334Z,19.90
2022-07-25T21:49:12.308Z,19.15
2022-07-25T21:53:09.120Z,18.64
2022-07-25T21:56:39.376Z,18.25
2022-07-25T22:00:33.327Z,18.50
2022-07-25T22:04:28.481Z,19.61
2022-07-25T22:08:36.562Z,20.25
2022-07-25T22:12:39.323Z,20.61
2022-07-25T22:16:09.552Z,20.24
2022-07-25T22:19:43.287Z,19.36
2022-07-25T22:23:00.133Z,18.65
2022-07-25T22:26:58.627Z,18.20
2022-07-25T22:30:20.668Z,18.43
2022-07-25T22:33:52.667Z,19.32
2022-07-25T22:37:38.052Z,19.81
2022-07-25T22:41:35.909Z,20.10
2022-07-25T22:44:37.675Z,20.29
2022-07-25T22:47:23.227Z,20.17
2022-07-25T22:50:16.920Z,19.43
2022-07-25T22:52:59.128Z,18.73
2022-07-25T22:56:33.102Z,18.27
2022-07-25T23:00:08.088Z,18.27
2022-07-25T23:03:25.025Z,19.20
2022-07-25T23:07:04.694Z,19.72
2022-07-25T23:10:28.085Z,19.98
2022-07-25T23:14:05.686Z,19.71
2022-07-25T23:17:20.259Z,18.65
2022-07-25T23:19:53.240Z,18.05
2022-07-25T23:23:18.927Z,17.62
2022-07-25T23:26:15.392Z,17.66
2022-07-25T23:29:31.060Z,18.51
2022-07-25T23:33:12.815Z,19.20
2022-07-25T23:37:12.069Z,19.62
2022-07-25T23:41:21.418Z,19.92
2022-07-25T23:45:05.369Z,19.57
2022-07-25T23:48:50.460Z,18.42
2022-07-25T23:52:24.911Z,17.66
2022-07-25T23:55:10.320Z,17.66
2022-07-25T23:57:44.237Z,18.36
